createdAt,value
2022-08-05T00:00:08.859Z,19.33
2022-08-05T00:01:20.785Z,20.60
2022-08-05T00:02:31.635Z,21.67
2022-08-05T00:03:33.957Z,18.60
2022-08-05T00:04:37.852Z,17.35
2022-08-05T00:06:05.122Z,21.98
2022-08-05T00:07:21.702Z,18.00
2022-08-05T00:08:34.889Z,17.70
2022-08-05T00:09:39.242Z,16.73
2022-08-05T00:10:46.206Z,15.68
2022-08-05T00:11:56.079Z,17.33
2022-08-05T00:13:02.199Z,18.95
2022-08-05T00:14:12.999Z,14.95
2022-08-05T00:15:55.879Z,13.55
2022-08-05T00:16:52.537Z,18.70
2022-08-05T00:17:56.004Z,17.08
2022-08-05T00:18:59.333Z,16.17
2022-08-05T00:20:02.778Z,16.23
2022-08-05T00:21:08.445Z,12.23
2022-08-05T00:22:11.306Z,14.32
2022-08-05T00:23:14.951Z,15.18
2022-08-05T00:24:19.145Z,11.93
2022-08-05T00:25:28.247Z,10.75
2022-08-05T00:27:54.541Z,8.02
2022-08-05T00:28:58.564Z,12.40
2022-08-05T00:30:03.168Z,14.35
2022-08-05T00:31:07.931Z,13.80
2022-08-05T00:32:15.101Z,8.10
2022-08-05T00:34:55.585Z,10.68
2022-08-05T00:35:03.535Z,10.73
2022-08-05T00:36:16.257Z,9.63
2022-08-05T00:37:50.370Z,7.13
2022-08-05T00:38:53.964Z,10.43
2022-08-05T00:40:01.733Z,11.77
2022-08-05T00:41:11.714Z,7.75
2022-08-05T00:42:31.969Z,10.30
2022-08-05T00:43:47.133Z,8.45
2022-08-05T00:44:51.694Z,7.05
2022-08-05T00:45:56.587Z,6.10
2022-08-05T00:47:03.717Z,7.63
2022-08-05T00:48:08.226Z,6.50
2022-08-05T00:49:14.607Z,10.82
2022-08-05T00:50:16.854Z,9.32
2022-08-05T00:51:50.935Z,11.18
2022-08-05T00:52:45.431Z,7.82
2022-08-05T00:54:02.690Z,8.05
2022-08-05T00:55:06.082Z,7.43
2022-08-05T00:56:10.010Z,11.35
2022-08-05T00:57:14.260Z,11.23
2022-08-05T00:58:19.124Z,6.57
2022-08-05T00:59:21.520Z,5.63
2022-08-05T01:00:26.016Z,6.28
2022-08-05T01:01:48.196Z,7.68
2022-08-05T01:02:51.086Z,7.13
2022-08-05T01:03:56.686Z,8.48
2022-08-05T01:04:59.366Z,7.85
2022-08-05T01:06:05.453Z,9.25
2022-08-05T01:07:07.897Z,9.05
2022-08-05T01:08:41.054Z,7.00
2022-08-05T01:09:41.475Z,10.25
2022-08-05T01:10:52.141Z,11.02
2022-08-05T01:12:09.282Z,7.22
2022-08-05T01:13:27.479Z,9.05
2022-08-05T01:14:53.178Z,9.65
2022-08-05T01:16:00.465Z,10.98
2022-08-05T01:17:08.664Z,9.63
2022-08-05T01:18:16.052Z,6.13
2022-08-05T01:19:36.755Z,9.80
2022-08-05T01:21:02.447Z,5.35
2022-08-05T01:22:24.371Z,7.32
2022-08-05T01:23:45.149Z,9.98
2022-08-05T01:25:24.340Z,6.68
2022-08-05T01:27:00.713Z,7.40
2022-08-05T01:28:27.808Z,8.13
2022-08-05T01:29:35.763Z,10.52
2022-08-05T01:30:46.595Z,8.05
2022-08-05T01:32:03.351Z,7.50
2022-08-05T01:33:09.565Z,5.18
2022-08-05T01:34:20.991Z,8.88
2022-08-05T01:35:51.940Z,6.95
2022-08-05T01:36:55.304Z,5.90
2022-08-05T01:37:59.432Z,9.68
2022-08-05T01:39:03.731Z,6.45
2022-08-05T01:40:08.752Z,9.25
2022-08-05T01:41:14.698Z,5.60
2022-08-05T01:42:21.553Z,6.82
2022-08-05T01:43:28.105Z,7.60
2022-08-05T01:44:34.298Z,9.52
2022-08-05T01:45:43.061Z,7.28
2022-08-05T01:46:50.033Z,5.95
2022-08-05T01:47:55.567Z,9.80
2022-08-05T01:49:01.800Z,6.10
2022-08-05T01:50:29.405Z,7.38
2022-08-05T01:51:35.864Z,6.70
2022-08-05T01:52:44.113Z,5.80
2022-08-05T01:53:57.252Z,9.45
2022-08-05T01:55:06.729Z,8.13
2022-08-05T01:58:10.898Z,6.85
2022-08-05T01:58:11.543Z,7.57
2022-08-05T01:59:10.212Z,8.82
2022-08-05T02:00:14.267Z,10.75
2022-08-05T02:01:25.461Z,5.68
2022-08-05T02:02:33.193Z,9.18
2022-08-05T02:03:41.558Z,11.55
2022-08-05T02:04:49.540Z,5.65
2022-08-05T02:05:59.904Z,7.78
2022-08-05T02:07:06.716Z,5.65
2022-08-05T02:08:09.367Z,6.43
2022-08-05T02:09:16.473Z,10.40
2022-08-05T02:10:28.086Z,8.57
2022-08-05T02:11:42.313Z,9.52
2022-08-05T02:12:53.860Z,6.40
2022-08-05T02:14:03.916Z,8.95
2022-08-05T02:15:12.807Z,8.98
2022-08-05T02:18:32.993Z,5.55
2022-08-05T02:18:57.403Z,5.57
2022-08-05T02:20:03.071Z,5.38
2022-08-05T02:21:15.010Z,7.22
2022-08-05T02:22:26.425Z,10.23
2022-08-05T02:23:35.793Z,10.00
2022-08-05T02:24:41.984Z,7.03
2022-08-05T02:25:49.951Z,6.65
2022-08-05T02:28:01.254Z,6.45
2022-08-05T02:29:05.284Z,8.90
2022-08-05T02:30:22.710Z,6.75
2022-08-05T02:31:34.905Z,6.30
2022-08-05T02:32:39.291Z,12.45
2022-08-05T02:33:49.923Z,5.68
2022-08-05T02:35:02.099Z,8.90
2022-08-05T02:36:20.620Z,6.95
2022-08-05T02:37:34.481Z,9.32
2022-08-05T02:38:37.859Z,6.15
2022-08-05T02:39:43.235Z,6.18
2022-08-05T02:40:50.614Z,8.10
2022-08-05T02:41:57.764Z,9.32
2022-08-05T02:43:04.963Z,7.22
2022-08-05T02:44:13.437Z,6.88
2022-08-05T02:45:17.175Z,7.75
2022-08-05T02:46:27.460Z,4.80
2022-08-05T02:47:58.475Z,6.30
2022-08-05T02:48:54.952Z,6.47
2022-08-05T02:49:57.493Z,5.63
2022-08-05T02:51:02.061Z,6.38
2022-08-05T02:52:09.988Z,8.52
2022-08-05T02:53:19.480Z,7.38
2022-08-05T02:54:34.955Z,11.75
2022-08-05T02:55:54.796Z,8.43
2022-08-05T02:56:58.940Z,8.38
2022-08-05T02:58:09.654Z,8.70
2022-08-05T02:59:17.367Z,6.93
2022-08-05T03:00:21.740Z,8.20
2022-08-05T03:01:27.358Z,11.18
2022-08-05T03:02:35.576Z,7.97
2022-08-05T03:04:03.061Z,10.15
2022-08-05T03:05:05.304Z,10.00
2022-08-05T03:06:56.030Z,6.50
2022-08-05T03:08:01.592Z,9.20
2022-08-05T03:08:59.077Z,9.60
2022-08-05T03:10:03.023Z,5.10
2022-08-05T03:11:54.812Z,7.47
2022-08-05T03:12:41.322Z,10.40
2022-08-05T03:13:51.987Z,7.70
2022-08-05T03:15:09.337Z,10.60
2022-08-05T03:16:11.562Z,7.18
2022-08-05T03:17:20.470Z,8.10
2022-08-05T03:18:29.906Z,7.10
2022-08-05T03:19:36.021Z,6.60
2022-08-05T03:20:39.000Z,11.30
2022-08-05T03:21:51.877Z,10.45
2022-08-05T03:22:57.216Z,7.53
2022-08-05T03:24:02.409Z,8.65
2022-08-05T03:25:31.614Z,9.38
2022-08-05T03:26:31.500Z,5.47
2022-08-05T03:27:39.324Z,6.03
2022-08-05T03:28:57.996Z,6.50
2022-08-05T03:30:08.152Z,10.73
2022-08-05T03:31:18.300Z,11.07
2022-08-05T03:32:38.984Z,9.25
2022-08-05T03:33:50.933Z,7.38
2022-08-05T03:34:54.782Z,7.93
2022-08-05T03:35:58.634Z,10.07
2022-08-05T03:37:05.525Z,8.00
2022-08-05T03:38:07.805Z,7.65
2022-08-05T03:39:13.111Z,8.48
2022-08-05T03:40:31.129Z,8.82
2022-08-05T03:41:38.577Z,5.93
2022-08-05T03:42:52.373Z,6.75
2022-08-05T03:44:09.702Z,8.10
2022-08-05T03:45:21.439Z,12.38
2022-08-05T03:46:26.780Z,12.18
2022-08-05T03:47:35.353Z,9.85
2022-08-05T03:48:46.759Z,8.80
2022-08-05T03:49:51.328Z,7.70
2022-08-05T03:52:37.397Z,6.82
2022-08-05T03:52:39.070Z,8.70
2022-08-05T03:55:54.021Z,9.85
2022-08-05T03:56:05.358Z,9.13
2022-08-05T03:56:50.267Z,6.97
2022-08-05T03:57:57.060Z,8.30
2022-08-05T03:59:03.038Z,10.20
2022-08-05T04:00:08.971Z,10.05
2022-08-05T04:01:21.141Z,7.13
2022-08-05T04:02:37.755Z,8.02
2022-08-05T04:04:08.867Z,9.45
2022-08-05T04:05:12.342Z,7.13
2022-08-05T04:06:17.381Z,7.43
2022-08-05T04:07:24.949Z,8.68
2022-08-05T04:08:36.471Z,9.63
2022-08-05T04:09:53.503Z,10.20
2022-08-05T04:10:58.198Z,11.30
2022-08-05T04:12:00.507Z,9.63
2022-08-05T04:13:04.104Z,7.88
2022-08-05T04:14:07.268Z,7.35
2022-08-05T04:15:15.702Z,8.63
2022-08-05T04:16:24.250Z,7.25
2022-08-05T04:17:36.486Z,9.93
2022-08-05T04:18:54.124Z,7.25
2022-08-05T04:19:58.787Z,9.82
2022-08-05T04:21:01.930Z,9.43
2022-08-05T04:22:11.301Z,9.50
2022-08-05T04:23:16.083Z,12.55
2022-08-05T04:24:22.696Z,9.70
2022-08-05T04:25:56.871Z,8.70
2022-08-05T04:26:48.530Z,12.13
2022-08-05T04:27:58.102Z,9.48
2022-08-05T04:29:07.170Z,7.70
2022-08-05T04:30:10.933Z,8.27
2022-08-05T04:31:14.451Z,9.30
2022-08-05T04:32:30.791Z,8.82
2022-08-05T04:33:54.901Z,8.90
2022-08-05T04:34:59.981Z,8.48
2022-08-05T04:36:10.846Z,10.60
2022-08-05T04:37:20.046Z,9.10
2022-08-05T04:38:39.538Z,13.02
2022-08-05T04:39:43.433Z,9.77
2022-08-05T04:40:50.630Z,9.18
2022-08-05T04:41:54.210Z,7.47
2022-08-05T04:42:57.686Z,10.48
2022-08-05T04:44:00.862Z,7.40
2022-08-05T04:45:14.158Z,9.65
2022-08-05T04:46:27.841Z,9.80
2022-08-05T04:47:38.653Z,8.70
2022-08-05T04:48:49.494Z,6.78
2022-08-05T04:50:06.505Z,8.25
2022-08-05T04:51:14.959Z,7.97
2022-08-05T04:52:18.694Z,8.75
2022-08-05T04:53:20.960Z,6.82
2022-08-05T04:54:27.081Z,7.72
2022-08-05T04:56:33.903Z,9.43
2022-08-05T04:56:58.733Z,12.82
2022-08-05T04:58:01.964Z,10.93
2022-08-05T04:59:22.344Z,10.10
2022-08-05T05:00:28.643Z,8.43
2022-08-05T05:02:06.175Z,6.63
2022-08-05T05:02:59.110Z,8.82
2022-08-05T05:04:05.829Z,9.25
2022-08-05T05:05:26.624Z,10.73
2022-08-05T05:06:39.760Z,7.65
2022-08-05T05:07:56.061Z,11.50
2022-08-05T05:08:59.898Z,8.73
2022-08-05T05:10:05.467Z,9.90
2022-08-05T05:11:09.741Z,10.43
2022-08-05T05:12:17.392Z,8.68
2022-08-05T05:13:20.601Z,9.27
2022-08-05T05:14:28.035Z,7.78
2022-08-05T05:16:57.950Z,11.27
2022-08-05T05:18:00.290Z,6.85
2022-08-05T05:19:26.666Z,7.50
2022-08-05T05:20:30.410Z,8.20
2022-08-05T05:21:35.102Z,8.93
2022-08-05T05:22:40.872Z,7.57
2022-08-05T05:24:02.900Z,9.98
2022-08-05T05:25:17.215Z,9.07
2022-08-05T05:26:28.707Z,8.23
2022-08-05T05:27:45.767Z,8.32
2022-08-05T05:28:50.964Z,8.68
2022-08-05T05:30:04.351Z,8.27
2022-08-05T05:31:08.884Z,6.95
2022-08-05T05:32:12.469Z,10.95
2022-08-05T05:33:16.954Z,14.70
2022-08-05T05:34:27.021Z,8.65
2022-08-05T05:35:34.427Z,10.47
2022-08-05T05:36:42.714Z,7.30
2022-08-05T05:38:00.122Z,8.15
2022-08-05T05:39:05.023Z,9.65
2022-08-05T05:40:15.014Z,7.47
2022-08-05T05:41:18.534Z,10.05
2022-08-05T05:42:20.887Z,8.82
2022-08-05T05:43:54.645Z,6.55
2022-08-05T05:44:47.775Z,7.35
2022-08-05T05:45:49.940Z,8.73
2022-08-05T05:46:53.200Z,10.90
2022-08-05T05:48:06.247Z,8.48
2022-08-05T05:49:22.895Z,8.35
2022-08-05T05:50:27.039Z,8.70
2022-08-05T05:51:29.475Z,9.32
2022-08-05T05:52:54.304Z,6.93
2022-08-05T05:53:59.796Z,9.32
2022-08-05T05:55:07.529Z,10.27
2022-08-05T05:56:15.930Z,8.73
2022-08-05T05:57:42.602Z,9.43
2022-08-05T05:58:47.876Z,6.78
2022-08-05T05:59:52.471Z,7.28
2022-08-05T06:01:12.340Z,8.82
2022-08-05T06:02:16.318Z,8.90
2022-08-05T06:04:01.305Z,5.70
2022-08-05T06:04:43.630Z,11.05
2022-08-05T06:05:53.982Z,8.65
2022-08-05T06:06:57.458Z,9.43
2022-08-05T06:08:05.424Z,7.25
2022-08-05T06:09:08.665Z,9.55
2022-08-05T06:10:12.612Z,9.38
2022-08-05T06:11:14.826Z,9.45
2022-08-05T06:12:18.137Z,8.93
2022-08-05T06:13:21.769Z,12.68
2022-08-05T06:14:27.988Z,11.00
2022-08-05T06:16:30.806Z,9.02
2022-08-05T06:16:54.531Z,10.23
2022-08-05T06:17:59.165Z,9.88
2022-08-05T06:19:05.632Z,9.18
2022-08-05T06:20:21.299Z,10.15
2022-08-05T06:21:24.923Z,9.35
2022-08-05T06:22:40.617Z,7.78
2022-08-05T06:23:46.030Z,8.75
2022-08-05T06:24:53.083Z,11.13
2022-08-05T06:26:12.137Z,8.65
2022-08-05T06:28:09.142Z,9.00
2022-08-05T06:28:38.763Z,9.05
2022-08-05T06:29:53.302Z,6.15
2022-08-05T06:31:11.038Z,8.82
2022-08-05T06:32:26.111Z,10.05
2022-08-05T06:33:33.276Z,9.10
2022-08-05T06:34:57.190Z,8.80
2022-08-05T06:36:05.818Z,12.60
2022-08-05T06:37:20.450Z,8.82
2022-08-05T06:38:36.159Z,12.00
2022-08-05T06:39:39.929Z,10.38
2022-08-05T06:40:45.201Z,6.32
2022-08-05T06:41:51.646Z,8.15
2022-08-05T06:42:55.355Z,6.15
2022-08-05T06:44:01.045Z,6.97
2022-08-05T06:45:05.611Z,8.45
2022-08-05T06:46:11.652Z,6.82
2022-08-05T06:47:30.069Z,9.95
2022-08-05T06:48:55.581Z,6.20
2022-08-05T06:50:05.323Z,8.18
2022-08-05T06:51:09.508Z,8.77
2022-08-05T06:52:36.758Z,8.95
2022-08-05T06:53:39.116Z,7.25
2022-08-05T06:54:44.037Z,6.15
2022-08-05T06:55:55.229Z,7.07
2022-08-05T06:57:13.777Z,4.78
2022-08-05T06:58:30.004Z,8.27
2022-08-05T06:59:42.176Z,6.13
2022-08-05T07:00:44.700Z,8.85
2022-08-05T07:01:47.912Z,7.18
2022-08-05T07:02:56.069Z,7.30
2022-08-05T07:03:59.194Z,5.45
2022-08-05T07:05:02.635Z,8.88
2022-08-05T07:06:06.059Z,7.43
2022-08-05T07:07:24.098Z,4.47
2022-08-05T07:08:40.725Z,10.55
2022-08-05T07:09:46.514Z,4.22
2022-08-05T07:10:57.705Z,5.60
2022-08-05T07:12:00.922Z,4.68
2022-08-05T07:13:46.383Z,4.90
2022-08-05T07:15:02.325Z,6.63
2022-08-05T07:17:55.837Z,5.55
2022-08-05T07:18:08.303Z,5.18
2022-08-05T07:19:09.623Z,6.13
2022-08-05T07:22:00.193Z,5.82
2022-08-05T07:22:59.197Z,4.43
2022-08-05T07:24:01.476Z,6.18
2022-08-05T07:25:23.258Z,7.50
2022-08-05T07:26:30.569Z,7.53
2022-08-05T07:27:57.992Z,6.47
2022-08-05T07:28:56.719Z,4.97
2022-08-05T07:30:25.543Z,7.13
2022-08-05T07:31:40.952Z,6.85
2022-08-05T07:32:53.243Z,4.45
2022-08-05T07:33:56.653Z,6.13
2022-08-05T07:35:55.713Z,5.57
2022-08-05T07:36:25.563Z,4.38
2022-08-05T07:37:37.677Z,6.25
2022-08-05T07:38:44.210Z,6.95
2022-08-05T07:40:04.716Z,6.63
2022-08-05T07:42:07.481Z,8.48
2022-08-05T07:42:39.127Z,6.00
2022-08-05T07:43:46.278Z,8.40
2022-08-05T07:44:49.640Z,5.43
2022-08-05T07:45:57.872Z,4.72
2022-08-05T07:47:01.645Z,6.20
2022-08-05T07:48:10.243Z,6.15
2022-08-05T07:49:13.805Z,5.50
2022-08-05T07:50:16.763Z,7.85
2022-08-05T07:51:23.362Z,6.22
2022-08-05T07:52:40.268Z,5.65
2022-08-05T07:53:50.563Z,10.13
2022-08-05T07:56:06.190Z,3.95
2022-08-05T07:57:41.897Z,6.38
2022-08-05T07:58:54.614Z,4.88
2022-08-05T07:59:58.551Z,8.30
2022-08-05T08:01:00.809Z,4.70
2022-08-05T08:02:15.773Z,5.22
2022-08-05T08:03:21.554Z,6.97
2022-08-05T08:04:38.181Z,7.53
2022-08-05T08:05:47.562Z,5.20
2022-08-05T08:06:52.068Z,4.65
2022-08-05T08:08:00.024Z,6.82
2022-08-05T08:09:05.440Z,4.63
2022-08-05T08:10:09.150Z,5.57
2022-08-05T08:11:16.045Z,9.63
2022-08-05T08:12:35.013Z,4.25
2022-08-05T08:14:00.457Z,5.03
2022-08-05T08:15:05.332Z,5.40
2022-08-05T08:16:35.064Z,6.65
2022-08-05T08:17:39.534Z,6.28
2022-08-05T08:18:50.252Z,8.07
2022-08-05T08:20:22.414Z,6.72
2022-08-05T08:21:18.379Z,7.28
2022-08-05T08:22:27.014Z,7.25
2022-08-05T08:24:01.193Z,7.35
2022-08-05T08:24:53.596Z,4.45
2022-08-05T08:26:00.032Z,6.65
2022-08-05T08:27:06.960Z,5.97
2022-08-05T08:28:18.438Z,4.32
2022-08-05T08:30:05.897Z,6.57
2022-08-05T08:31:01.037Z,5.80
2022-08-05T08:32:05.950Z,7.07
2022-08-05T08:33:14.491Z,5.00
2022-08-05T08:34:30.148Z,6.80
2022-08-05T08:35:41.419Z,4.72
2022-08-05T08:37:01.733Z,4.90
2022-08-05T08:38:35.249Z,7.15
2022-08-05T08:39:49.309Z,5.35
2022-08-05T08:40:52.190Z,3.92
2022-08-05T08:41:59.587Z,7.55
2022-08-05T08:45:19.456Z,5.97
2022-08-05T08:45:22.624Z,7.25
2022-08-05T08:45:58.936Z,8.70
2022-08-05T08:47:04.066Z,5.88
2022-08-05T08:49:01.014Z,8.65
2022-08-05T08:50:14.291Z,9.60
2022-08-05T08:52:02.110Z,6.75
2022-08-05T08:52:51.428Z,10.40
2022-08-05T08:53:56.572Z,8.05
2022-08-05T08:54:59.164Z,6.70
2022-08-05T08:56:06.225Z,3.92
2022-08-05T08:57:11.548Z,5.07
2022-08-05T08:58:17.845Z,8.73
2022-08-05T08:59:33.633Z,7.15
2022-08-05T09:00:37.318Z,8.80
2022-08-05T09:01:43.058Z,7.35
2022-08-05T09:03:01.115Z,9.63
2022-08-05T09:04:04.527Z,8.15
2022-08-05T09:05:17.870Z,5.93
2022-08-05T09:06:21.291Z,5.13
2022-08-05T09:07:39.425Z,8.38
2022-08-05T09:08:55.537Z,6.43
2022-08-05T09:09:58.028Z,6.57
2022-08-05T09:11:02.070Z,8.07
2022-08-05T09:12:30.124Z,6.13
2022-08-05T09:14:00.640Z,8.07
2022-08-05T09:15:06.408Z,11.20
2022-08-05T09:16:14.662Z,10.57
2022-08-05T09:17:40.989Z,11.15
2022-08-05T09:18:44.514Z,7.55
2022-08-05T09:20:01.520Z,5.97
2022-08-05T09:21:11.432Z,7.10
2022-08-05T09:22:23.520Z,5.88
2022-08-05T09:23:43.474Z,5.93
2022-08-05T09:24:57.358Z,7.20
2022-08-05T09:26:20.851Z,5.80
2022-08-05T09:28:04.067Z,7.75
2022-08-05T09:29:01.045Z,4.55
2022-08-05T09:30:07.639Z,6.63
2022-08-05T09:31:43.467Z,5.68
2022-08-05T09:32:46.491Z,4.75
2022-08-05T09:33:56.609Z,7.25
2022-08-05T09:35:01.690Z,9.20
2022-08-05T09:36:16.452Z,6.10
2022-08-05T09:38:17.509Z,4.97
2022-08-05T09:38:57.844Z,6.30
2022-08-05T09:40:01.087Z,5.60
2022-08-05T09:41:07.396Z,7.72
2022-08-05T09:42:17.267Z,5.82
2022-08-05T09:43:41.887Z,8.20
2022-08-05T09:44:49.451Z,8.75
2022-08-05T09:46:06.007Z,7.38
2022-08-05T09:47:15.767Z,5.03
2022-08-05T09:48:26.847Z,5.07
2022-08-05T09:49:54.465Z,3.10
2022-08-05T09:50:55.998Z,4.53
2022-08-05T09:51:59.184Z,6.82
2022-08-05T09:53:01.368Z,7.22
2022-08-05T09:54:08.456Z,5.22
2022-08-05T09:55:58.487Z,5.43
2022-08-05T09:56:38.079Z,4.13
2022-08-05T09:57:43.391Z,4.50
2022-08-05T09:58:57.927Z,8.73
2022-08-05T10:00:07.761Z,5.30
2022-08-05T10:01:31.602Z,6.05
2022-08-05T10:02:40.002Z,4.60
2022-08-05T10:03:59.508Z,6.40
2022-08-05T10:05:10.679Z,6.32
2022-08-05T10:06:20.874Z,5.88
2022-08-05T10:08:10.756Z,6.78
2022-08-05T10:08:50.377Z,7.25
2022-08-05T10:10:14.197Z,7.05
2022-08-05T10:11:19.253Z,8.13
2022-08-05T10:12:31.728Z,7.63
2022-08-05T10:13:45.741Z,3.60
2022-08-05T10:14:50.660Z,3.83
2022-08-05T10:15:58.311Z,5.15
2022-08-05T10:17:37.692Z,6.07
2022-08-05T10:18:39.228Z,5.32
2022-08-05T10:20:03.920Z,6.57
2022-08-05T10:21:11.804Z,6.07
2022-08-05T10:22:30.200Z,6.72
2022-08-05T10:24:00.014Z,8.07
2022-08-05T10:25:01.897Z,5.38
2022-08-05T10:26:06.992Z,5.35
2022-08-05T10:27:12.092Z,5.22
2022-08-05T10:28:19.467Z,5.97
2022-08-05T10:30:42.021Z,6.93
2022-08-05T10:32:48.395Z,7.32
2022-08-05T10:32:55.078Z,5.78
2022-08-05T10:33:54.205Z,7.45
2022-08-05T10:35:00.874Z,6.15
2022-08-05T10:36:05.960Z,7.18
2022-08-05T10:37:08.393Z,5.90
2022-08-05T10:38:13.318Z,8.98
2022-08-05T10:39:25.159Z,5.72
2022-08-05T10:40:47.333Z,6.00
2022-08-05T10:42:00.867Z,6.97
2022-08-05T10:43:12.990Z,3.80
2022-08-05T10:44:19.197Z,5.65
2022-08-05T10:45:39.759Z,8.13
2022-08-05T10:46:50.957Z,4.97
2022-08-05T10:48:29.751Z,5.20
2022-08-05T10:49:26.901Z,5.03
2022-08-05T10:50:35.283Z,3.55
2022-08-05T10:51:57.542Z,5.45
2022-08-05T10:53:04.067Z,5.90
2022-08-05T10:54:28.654Z,5.57
2022-08-05T10:55:32.742Z,4.63
2022-08-05T10:56:46.964Z,2.70
2022-08-05T10:58:09.485Z,3.30
2022-08-05T11:00:04.097Z,5.40
2022-08-05T11:00:47.125Z,4.45
2022-08-05T11:01:55.363Z,2.72
2022-08-05T11:03:25.053Z,3.95
2022-08-05T11:04:30.947Z,3.92
2022-08-05T11:05:34.580Z,5.43
2022-08-05T11:07:06.859Z,5.82
2022-08-05T11:08:37.374Z,6.55
2022-08-05T11:09:46.701Z,6.70
2022-08-05T11:10:50.340Z,3.50
2022-08-05T11:12:05.994Z,4.85
2022-08-05T11:13:54.931Z,5.47
2022-08-05T11:15:19.671Z,3.67
2022-08-05T11:16:47.523Z,5.07
2022-08-05T11:17:57.695Z,6.63
2022-08-05T11:20:11.500Z,7.60
2022-08-05T11:20:53.667Z,7.03
2022-08-05T11:22:39.690Z,6.18
2022-08-05T11:24:04.033Z,8.90
2022-08-05T11:26:05.274Z,4.72
2022-08-05T11:27:45.693Z,7.30
2022-08-05T11:28:55.504Z,7.68
2022-08-05T11:30:03.636Z,6.05
2022-08-05T11:31:56.609Z,5.88
2022-08-05T11:33:20.861Z,5.25
2022-08-05T11:34:39.455Z,5.88
2022-08-05T11:36:07.450Z,5.60
2022-08-05T11:38:30.972Z,6.22
2022-08-05T11:38:54.730Z,5.55
2022-08-05T11:40:03.377Z,8.43
2022-08-05T11:41:34.637Z,5.25
2022-08-05T11:42:30.329Z,6.88
2022-08-05T11:44:05.993Z,7.35
2022-08-05T11:45:03.359Z,5.68
2022-08-05T11:46:27.366Z,5.60
2022-08-05T11:47:49.542Z,3.60
2022-08-05T11:48:53.510Z,5.70
2022-08-05T11:49:58.334Z,6.30
2022-08-05T11:51:03.239Z,4.03
2022-08-05T11:52:08.678Z,8.30
2022-08-05T11:53:15.516Z,4.47
2022-08-05T11:54:33.341Z,4.03
2022-08-05T11:55:36.812Z,5.80
2022-08-05T11:56:52.282Z,5.32
2022-08-05T11:58:10.480Z,4.15
2022-08-05T11:59:16.367Z,3.58
2022-08-05T12:00:28.773Z,5.05
2022-08-05T12:01:31.308Z,5.53
2022-08-05T12:02:36.253Z,8.25
2022-08-05T12:03:44.021Z,5.65
2022-08-05T12:05:07.493Z,5.15
2022-08-05T12:06:11.149Z,5.13
2022-08-05T12:07:16.951Z,2.53
2022-08-05T12:08:49.884Z,5.25
2022-08-05T12:09:55.658Z,3.63
2022-08-05T12:11:05.499Z,5.70
2022-08-05T12:12:09.927Z,4.13
2022-08-05T12:13:15.928Z,4.90
2022-08-05T12:14:24.263Z,3.88
2022-08-05T12:15:35.981Z,5.05
2022-08-05T12:16:45.168Z,4.15
2022-08-05T12:18:00.655Z,4.28
2022-08-05T12:19:08.855Z,3.90
2022-08-05T12:20:16.861Z,4.72
2022-08-05T12:21:32.323Z,5.47
2022-08-05T12:22:35.455Z,3.75
2022-08-05T12:23:52.318Z,1.92
2022-08-05T12:24:56.163Z,4.30
2022-08-05T12:25:58.315Z,3.28
2022-08-05T12:27:09.675Z,5.22
2022-08-05T12:28:34.239Z,3.83
2022-08-05T12:29:38.970Z,3.65
2022-08-05T12:30:45.895Z,4.57
2022-08-05T12:31:53.476Z,2.97
2022-08-05T12:33:27.487Z,2.63
2022-08-05T12:34:38.859Z,3.92
2022-08-05T12:35:43.561Z,5.07
2022-08-05T12:36:53.448Z,5.65
2022-08-05T12:37:55.935Z,5.25
2022-08-05T12:38:59.809Z,5.72
2022-08-05T12:40:10.491Z,3.75
2022-08-05T12:41:14.675Z,4.20
2022-08-05T12:42:21.450Z,4.93
2022-08-05T12:43:27.666Z,6.13
2022-08-05T12:44:35.454Z,3.97
2022-08-05T12:45:49.565Z,4.43
2022-08-05T12:46:54.923Z,3.53
2022-08-05T12:48:01.268Z,4.57
2022-08-05T12:49:20.238Z,6.43
2022-08-05T12:50:27.791Z,4.85
2022-08-05T12:52:14.493Z,4.82
2022-08-05T12:53:09.757Z,4.35
2022-08-05T12:54:26.511Z,4.30
2022-08-05T12:55:32.935Z,5.00
2022-08-05T12:56:43.318Z,4.22
2022-08-05T12:58:38.735Z,2.55
2022-08-05T12:59:20.877Z,4.32
2022-08-05T13:02:01.313Z,3.92
2022-08-05T13:02:07.656Z,2.17
2022-08-05T13:03:12.078Z,5.15
2022-08-05T13:04:21.212Z,5.57
2022-08-05T13:05:23.865Z,3.20
2022-08-05T13:06:27.596Z,3.30
2022-08-05T13:07:57.109Z,4.57
2022-08-05T13:08:55.541Z,3.03
2022-08-05T13:10:02.315Z,2.17
2022-08-05T13:11:04.564Z,4.00
2022-08-05T13:12:16.103Z,3.63
2022-08-05T13:14:06.686Z,2.78
2022-08-05T13:14:44.956Z,3.72
2022-08-05T13:15:51.244Z,4.57
2022-08-05T13:16:56.674Z,4.85
2022-08-05T13:17:59.286Z,2.80
2022-08-05T13:19:02.901Z,4.07
2022-08-05T13:20:08.607Z,3.40
2022-08-05T13:21:10.842Z,5.13
2022-08-05T13:22:28.515Z,2.42
2022-08-05T13:23:33.691Z,2.95
2022-08-05T13:24:57.748Z,2.03
2022-08-05T13:26:01.103Z,2.22
2022-08-05T13:27:04.899Z,2.58
2022-08-05T13:28:13.186Z,2.13
2022-08-05T13:29:18.817Z,2.88
2022-08-05T13:30:34.786Z,3.22
2022-08-05T13:32:04.871Z,4.78
2022-08-05T13:33:02.853Z,3.22
2022-08-05T13:34:23.890Z,6.10
2022-08-05T13:35:42.407Z,4.00
2022-08-05T13:36:49.997Z,3.15
2022-08-05T13:37:55.797Z,3.92
2022-08-05T13:39:00.525Z,2.55
2022-08-05T13:40:16.189Z,4.50
2022-08-05T13:41:20.144Z,5.18
2022-08-05T13:42:29.166Z,4.68
2022-08-05T13:43:44.650Z,5.43
2022-08-05T13:44:56.222Z,3.75
2022-08-05T13:46:01.141Z,4.53
2022-08-05T13:47:08.951Z,6.55
2022-08-05T13:49:00.323Z,5.25
2022-08-05T13:49:35.222Z,2.95
2022-08-05T13:50:37.646Z,3.40
2022-08-05T13:51:45.789Z,3.75
2022-08-05T13:52:49.888Z,5.07
2022-08-05T13:54:21.035Z,4.30
2022-08-05T13:55:41.409Z,4.35
2022-08-05T13:56:52.008Z,6.70
2022-08-05T13:57:57.486Z,4.82
2022-08-05T13:59:05.943Z,4.45
2022-08-05T14:00:27.723Z,8.95
2022-08-05T14:01:44.202Z,5.50
2022-08-05T14:02:55.051Z,3.97
2022-08-05T14:04:15.566Z,3.20
2022-08-05T14:05:29.174Z,5.65
2022-08-05T14:06:32.981Z,8.32
2022-08-05T14:08:00.138Z,8.13
2022-08-05T14:09:02.257Z,4.65
2022-08-05T14:10:13.897Z,5.82
2022-08-05T14:11:22.478Z,5.30
2022-08-05T14:12:32.565Z,6.43
2022-08-05T14:14:38.192Z,4.18
2022-08-05T14:16:06.815Z,6.50
2022-08-05T14:17:05.857Z,4.68
2022-08-05T14:18:23.285Z,4.75
2022-08-05T14:19:26.205Z,3.95
2022-08-05T14:20:30.747Z,3.55
2022-08-05T14:22:09.953Z,6.15
2022-08-05T14:22:57.245Z,6.03
2022-08-05T14:24:00.723Z,5.13
2022-08-05T14:25:06.078Z,4.63
2022-08-05T14:26:11.030Z,3.92
2022-08-05T14:27:34.140Z,3.50
2022-08-05T14:28:37.504Z,3.22
2022-08-05T14:29:56.376Z,5.05
2022-08-05T14:31:01.036Z,3.22
2022-08-05T14:32:12.448Z,3.95
2022-08-05T14:33:22.703Z,7.22
2022-08-05T14:34:25.476Z,5.07
2022-08-05T14:35:37.543Z,7.50
2022-08-05T14:36:52.019Z,6.78
2022-08-05T14:37:55.643Z,6.47
2022-08-05T14:38:58.002Z,6.63
2022-08-05T14:40:01.256Z,3.53
2022-08-05T14:41:07.249Z,3.50
2022-08-05T14:42:20.837Z,4.53
2022-08-05T14:43:59.606Z,7.97
2022-08-05T14:44:48.173Z,7.90
2022-08-05T14:45:50.403Z,5.07
2022-08-05T14:46:53.670Z,5.75
2022-08-05T14:48:05.402Z,5.05
2022-08-05T14:49:09.415Z,4.32
2022-08-05T14:50:17.684Z,5.20
2022-08-05T14:51:22.118Z,5.28
2022-08-05T14:52:50.431Z,5.22
2022-08-05T14:54:27.151Z,5.53
2022-08-05T14:55:15.430Z,4.35
2022-08-05T14:56:22.701Z,4.85
2022-08-05T14:57:53.987Z,4.10
2022-08-05T14:58:53.117Z,4.30
2022-08-05T14:59:55.491Z,4.05
2022-08-05T15:01:01.361Z,4.65
2022-08-05T15:02:04.260Z,4.22
2022-08-05T15:03:18.895Z,4.57
2022-08-05T15:04:27.378Z,5.82
2022-08-05T15:06:07.454Z,3.05
2022-08-05T15:06:54.567Z,3.92
2022-08-05T15:08:05.588Z,4.53
2022-08-05T15:09:15.466Z,3.53
2022-08-05T15:10:17.782Z,4.70
2022-08-05T15:11:53.067Z,3.25
2022-08-05T15:13:03.569Z,2.95
2022-08-05T15:14:06.737Z,6.95
2022-08-05T15:15:15.580Z,4.50
2022-08-05T15:16:17.905Z,2.95
2022-08-05T15:17:45.929Z,3.33
2022-08-05T15:18:47.167Z,3.20
2022-08-05T15:19:49.549Z,5.72
2022-08-05T15:20:58.581Z,3.65
2022-08-05T15:22:11.173Z,4.75
2022-08-05T15:23:13.595Z,4.20
2022-08-05T15:24:16.746Z,3.38
2022-08-05T15:25:23.232Z,4.13
2022-08-05T15:26:42.213Z,4.75
2022-08-05T15:27:51.933Z,8.10
2022-08-05T15:28:57.104Z,8.80
2022-08-05T15:30:00.438Z,6.75
2022-08-05T15:31:03.852Z,7.60
2022-08-05T15:32:08.113Z,9.63
2022-08-05T15:33:11.690Z,8.65
2022-08-05T15:34:31.593Z,9.35
2022-08-05T15:35:36.560Z,8.73
2022-08-05T15:36:48.748Z,5.30
2022-08-05T15:38:34.952Z,7.72
2022-08-05T15:40:59.097Z,4.85
2022-08-05T15:40:59.389Z,5.35
2022-08-05T15:42:01.567Z,4.65
2022-08-05T15:43:24.723Z,2.13
2022-08-05T15:44:30.191Z,4.80
2022-08-05T15:45:38.417Z,6.50
2022-08-05T15:46:42.203Z,3.25
2022-08-05T15:47:45.186Z,4.47
2022-08-05T15:49:41.878Z,3.53
2022-08-05T15:50:45.473Z,5.53
2022-08-05T15:52:12.689Z,8.07
2022-08-05T15:53:12.704Z,4.03
2022-08-05T15:54:15.807Z,4.18
2022-08-05T15:55:19.303Z,5.95
2022-08-05T15:56:27.947Z,4.38
2022-08-05T15:57:32.947Z,5.38